TimeEET,TemperatureF,Dew PointF,Humidity,Sea Level PressureIn,VisibilityMPH,Wind Direction,Wind SpeedMPH,Gust SpeedMPH,PrecipitationIn,Events,Conditions,WindDirDegrees,DateUTC
12:00 AM,82.4,50.0,32,29.89,-9999.0,North,6.9,-,N/A,,Clear,360,2012-11-01 22:00:00
2:00 AM,79,51,27,29.86,6,North,4.6,,,,,0,2012-11-02 00:00:00
5:00 AM,71.6,60.8,69,29.86,-9999.0,WNW,9.2,-,N/A,,Clear,290,2012-11-02 03:00:00
6:00 AM,73.4,53.6,50,29.89,-9999.0,North,5.8,-,N/A,,Clear,360,2012-11-02 04:00:00
7:00 AM,75.2,53.6,47,29.92,-9999.0,North,5.8,-,N/A,,Clear,360,2012-11-02 05:00:00
8:00 AM,79,58,39,29.90,6,NNE,5.8,,,,,20,2012-11-02 06:00:00
8:00 AM,78.8,59.0,51,29.92,-9999.0,NNE,5.8,-,N/A,,Clear,20,2012-11-02 06:00:00
9:00 AM,84.2,64.4,51,29.92,-9999.0,NE,5.8,-,N/A,,Clear,40,2012-11-02 07:00:00
10:00 AM,89.6,66.2,46,29.92,-9999.0,NE,4.6,-,N/A,,Clear,40,2012-11-02 08:00:00
11:00 AM,93.2,64.4,38,29.89,-9999.0,NE,4.6,-,N/A,,Clear,50,2012-11-02 09:00:00
12:00 PM,96.8,62.6,32,29.86,-9999.0,Calm,Calm,-,N/A,,Clear,0,2012-11-02 10:00:00
1:00 PM,98.6,57.2,25,29.83,6.2,West,8.1,-,N/A,,Partly Cloudy,270,2012-11-02 11:00:00
2:00 PM,99,58,17,29.78,6,WSW,5.8,,,,Partly Cloudy,240,2012-11-02 12:00:00
2:00 PM,98.6,57.2,25,29.83,6.2,WSW,5.8,-,N/A,,Scattered Clouds,240,2012-11-02 12:00:00
3:00 PM,100.4,57.2,24,29.83,6.2,South,8.1,-,N/A,,Scattered Clouds,180,2012-11-02 13:00:00
4:00 PM,100.4,55.4,22,29.80,6.2,South,8.1,-,N/A,,Scattered Clouds,170,2012-11-02 14:00:00
5:00 PM,98.6,53.6,22,29.80,6.2,South,5.8,-,N/A,,Scattered Clouds,190,2012-11-02 15:00:00
6:00 PM,95.0,51.8,23,29.83,-9999.0,Calm,Calm,-,N/A,,Clear,0,2012-11-02 16:00:00
7:00 PM,91.4,51.8,26,29.83,-9999.0,Calm,Calm,-,N/A,,Clear,0,2012-11-02 17:00:00
8:00 PM,91,52,17,29.81,6,Calm,Calm,,,,,,2012-11-02 18:00:00
8:00 PM,91.4,51.8,26,29.83,-9999.0,Calm,Calm,-,N/A,,Clear,0,2012-11-02 18:00:00
9:00 PM,87.8,51.8,29,29.86,-9999.0,NNW,4.6,-,N/A,,Clear,330,2012-11-02 19:00:00
10:00 PM,87.8,50.0,27,29.86,-9999.0,Calm,Calm,-,N/A,,Clear,0,2012-11-02 20:00:00
11:00 PM,86.0,59.0,40,29.83,-9999.0,East,9.2,-,N/A,,Clear,80,2012-11-02 21:00:00